createdAt,value
2018-07-30T09:55:39.972Z,98.80
2018-07-30T09:58:08.278Z,98.90
2018-07-30T10:01:43.067Z,94.90
2018-07-30T10:04:11.796Z,94.20
2018-07-30T10:06:39.826Z,94.90
2018-07-30T10:09:10.503Z,96.20
2018-07-30T10:11:38.588Z,95.70
2018-07-30T10:14:07.650Z,94.20
2018-07-30T10:16:35.888Z,96.00
2018-07-30T10:19:04.163Z,93.40
2018-07-30T10:21:32.198Z,93.70
2018-07-30T10:24:00.394Z,93.90
2018-07-30T10:26:28.419Z,92.00
2018-07-30T10:28:56.662Z,93.70
2018-07-30T10:31:24.674Z,87.20
2018-07-30T10:33:53.127Z,87.60
2018-07-30T10:36:21.169Z,83.60
2018-07-30T10:38:49.215Z,81.80
2018-07-30T10:43:45.221Z,78.20
2018-07-30T10:46:13.669Z,81.50
2018-07-30T10:48:42.136Z,87.30
2018-07-30T10:51:10.475Z,85.90
2018-07-30T10:53:38.756Z,80.50
2018-07-30T10:56:06.838Z,79.70
2018-07-30T10:58:35.409Z,81.50
2018-07-30T11:01:03.513Z,82.30
2018-07-30T11:03:32.308Z,85.90
2018-07-30T11:06:01.103Z,81.90
2018-07-30T11:08:29.916Z,86.80
2018-07-30T11:10:58.371Z,83.70
2018-07-30T11:13:26.707Z,82.40
2018-07-30T11:15:54.777Z,78.30
2018-07-30T11:18:23.087Z,80.30
2018-07-30T11:20:51.890Z,76.40
2018-07-30T11:23:20.476Z,77.50
2018-07-30T11:25:48.558Z,80.00
2018-07-30T11:28:16.883Z,80.80
2018-07-30T11:30:45.318Z,82.70
2018-07-30T11:35:41.194Z,84.50
2018-07-30T11:38:09.210Z,84.50
2018-07-30T11:40:37.236Z,85.20
2018-07-30T11:43:05.374Z,83.50
2018-07-30T11:45:34.026Z,78.20
2018-07-30T11:48:04.358Z,78.50
2018-07-30T11:50:32.602Z,77.50
2018-07-30T11:53:00.846Z,75.00
2018-07-30T11:55:29.446Z,72.40
2018-07-30T11:57:57.475Z,76.10
2018-07-30T12:00:25.554Z,77.90
2018-07-30T12:02:53.865Z,78.40
2018-07-30T12:05:21.995Z,78.90
2018-07-30T12:07:50.270Z,78.20
2018-07-30T12:10:18.362Z,72.40
2018-07-30T12:12:46.421Z,73.10
2018-07-30T12:15:14.477Z,75.20
2018-07-30T12:17:42.508Z,73.40
2018-07-30T12:20:10.583Z,77.20
2018-07-30T12:22:38.623Z,73.30
2018-07-30T12:25:06.653Z,73.10
2018-07-30T12:27:34.875Z,72.60
2018-07-30T12:30:03.009Z,69.10
2018-07-30T12:32:31.048Z,67.20
2018-07-30T12:34:59.207Z,68.10
2018-07-30T12:37:27.289Z,67.10
2018-07-30T12:39:55.423Z,67.00
2018-07-30T12:42:23.571Z,67.40
2018-07-30T12:44:51.675Z,65.50
2018-07-30T12:47:19.871Z,63.90
2018-07-30T12:49:48.162Z,62.20
2018-07-30T12:52:16.308Z,64.80
2018-07-30T12:54:44.487Z,62.90
2018-07-30T12:57:12.567Z,61.00
2018-07-30T12:59:40.669Z,59.80
2018-07-30T13:02:08.807Z,59.80
2018-07-30T13:04:36.841Z,61.30
2018-07-30T13:07:04.866Z,60.50
2018-07-30T13:09:33.911Z,60.10
2018-07-30T13:12:02.064Z,60.10
2018-07-30T13:14:30.091Z,59.50
2018-07-30T13:16:58.222Z,59.90
2018-07-30T13:19:26.267Z,60.30
2018-07-30T13:21:54.301Z,60.10
2018-07-30T13:24:22.433Z,62.80
2018-07-30T13:26:50.544Z,59.10
2018-07-30T13:29:18.499Z,56.60
2018-07-30T13:31:46.534Z,58.00
2018-07-30T13:34:14.548Z,57.70
2018-07-30T13:36:42.569Z,59.50
2018-07-30T13:39:10.994Z,58.10
2018-07-30T13:41:39.273Z,59.30
2018-07-30T13:44:07.622Z,57.10
2018-07-30T13:46:36.011Z,61.50
2018-07-30T13:49:04.370Z,58.90
2018-07-30T13:51:32.435Z,57.30
2018-07-30T13:54:00.479Z,57.40
2018-07-30T13:56:28.519Z,58.20
2018-07-30T13:58:56.575Z,57.00
2018-07-30T14:01:24.588Z,56.90
2018-07-30T14:03:52.754Z,55.30
2018-07-30T14:06:20.914Z,56.70
2018-07-30T14:08:48.902Z,56.20
2018-07-30T14:11:17.002Z,57.10
2018-07-30T14:13:45.067Z,57.10
2018-07-30T14:16:13.249Z,56.40
2018-07-30T14:18:41.222Z,54.00
2018-07-30T14:21:09.259Z,53.00
2018-07-30T14:23:37.303Z,49.40
2018-07-30T14:26:05.452Z,49.40
2018-07-30T14:28:33.432Z,50.00
2018-07-30T14:31:01.424Z,49.40
2018-07-30T14:33:29.435Z,46.90
2018-07-30T14:35:57.430Z,49.00
2018-07-30T14:38:25.442Z,50.30
2018-07-30T14:40:53.486Z,50.50
2018-07-30T14:43:21.564Z,49.20
2018-07-30T14:45:49.832Z,48.90
2018-07-30T14:48:17.891Z,46.60
2018-07-30T14:50:45.988Z,49.10
2018-07-30T14:53:14.218Z,48.80
2018-07-30T14:55:42.566Z,49.60
2018-07-30T14:58:10.578Z,48.00
2018-07-30T15:00:38.666Z,47.70
2018-07-30T15:03:06.714Z,49.50
2018-07-30T15:05:34.774Z,48.50
2018-07-30T15:08:02.939Z,49.60
2018-07-30T15:10:30.950Z,46.50
2018-07-30T15:12:59.050Z,44.30
2018-07-30T15:15:27.102Z,43.50
2018-07-30T15:17:55.103Z,42.90
2018-07-30T15:20:23.170Z,43.50
2018-07-30T15:22:51.226Z,43.80
2018-07-30T15:25:19.236Z,43.90
2018-07-30T15:27:47.263Z,43.60
2018-07-30T15:30:15.275Z,43.30
2018-07-30T15:32:43.344Z,43.90
2018-07-30T15:35:11.402Z,44.00
2018-07-30T15:37:39.914Z,42.70
2018-07-30T15:40:07.958Z,43.00
2018-07-30T15:42:36.005Z,42.40
2018-07-30T15:45:04.347Z,44.70
2018-07-30T15:50:00.511Z,42.80
2018-07-30T15:52:28.665Z,45.80
2018-07-30T15:54:56.749Z,44.70
2018-07-30T15:57:24.940Z,44.70
2018-07-30T15:59:55.040Z,44.90
2018-07-30T16:02:23.162Z,44.50
2018-07-30T16:04:51.232Z,45.30
2018-07-30T16:07:19.418Z,46.10
2018-07-30T16:09:47.531Z,47.50
2018-07-30T16:12:15.611Z,47.90
2018-07-30T16:14:43.652Z,46.20
2018-07-30T16:17:11.899Z,45.70
2018-07-30T16:19:39.906Z,45.80
2018-07-30T16:22:07.937Z,47.30
2018-07-30T16:24:35.998Z,46.20
2018-07-30T16:27:04.010Z,48.00
2018-07-30T16:29:32.322Z,48.30
2018-07-30T16:32:00.362Z,48.30
2018-07-30T16:34:28.438Z,48.70
2018-07-30T16:36:56.447Z,48.90
2018-07-30T16:39:27.043Z,49.50
2018-07-30T16:41:55.827Z,49.40
2018-07-30T16:44:23.895Z,48.40
2018-07-30T16:46:51.973Z,49.70
2018-07-30T16:49:20.391Z,50.00
2018-07-30T16:51:49.408Z,50.20
2018-07-30T16:54:17.450Z,50.60
2018-07-30T16:56:45.495Z,51.00
2018-07-30T16:59:13.525Z,51.70
2018-07-30T17:04:09.378Z,50.20
2018-07-30T17:06:37.419Z,50.90
2018-07-30T17:09:08.511Z,50.90
2018-07-30T17:11:36.570Z,51.60
2018-07-30T17:14:04.642Z,52.50
2018-07-30T17:16:32.722Z,53.20
2018-07-30T17:19:00.738Z,52.30
2018-07-30T17:21:28.726Z,51.80
2018-07-30T17:23:56.865Z,51.60
2018-07-30T17:26:24.914Z,53.00
2018-07-30T17:28:53.010Z,53.50
2018-07-30T17:31:21.055Z,53.60
2018-07-30T17:33:49.146Z,53.40
2018-07-30T17:36:17.250Z,53.20
2018-07-30T17:38:45.254Z,53.80
2018-07-30T17:41:13.362Z,53.80
2018-07-30T17:43:41.470Z,53.30
2018-07-30T17:46:09.497Z,53.80
2018-07-30T17:48:37.534Z,53.10
2018-07-30T17:51:05.637Z,52.80
2018-07-30T17:53:33.662Z,53.40
2018-07-30T17:56:01.708Z,55.10
2018-07-30T17:58:29.774Z,56.50
2018-07-30T18:00:57.842Z,55.80
2018-07-30T18:03:25.858Z,56.30
2018-07-30T18:05:53.987Z,55.80
2018-07-30T18:08:22.023Z,56.20
2018-07-30T18:10:50.040Z,56.80
2018-07-30T18:13:18.044Z,56.70
2018-07-30T18:15:46.042Z,57.20
2018-07-30T18:18:14.079Z,57.30
2018-07-30T18:20:42.111Z,57.20
2018-07-30T18:23:10.286Z,57.50
2018-07-30T18:25:38.304Z,57.20
2018-07-30T18:28:06.398Z,56.70
2018-07-30T18:30:34.424Z,57.10
2018-07-30T18:33:02.451Z,57.30
2018-07-30T18:35:30.470Z,58.00
2018-07-30T18:37:58.474Z,59.50
2018-07-30T18:40:26.499Z,61.80
2018-07-30T18:42:54.522Z,63.60
2018-07-30T18:45:22.553Z,63.80
2018-07-30T18:47:50.558Z,63.40
2018-07-30T18:50:18.611Z,63.60
2018-07-30T18:52:46.639Z,62.60
2018-07-30T18:55:14.686Z,62.60
2018-07-30T18:57:42.741Z,62.80
2018-07-30T19:00:10.750Z,63.10
2018-07-30T19:02:38.754Z,63.50
2018-07-30T19:05:07.142Z,64.30
2018-07-30T19:07:35.190Z,65.10
2018-07-30T19:10:03.526Z,65.00
2018-07-30T19:12:31.531Z,64.80
2018-07-30T19:14:59.547Z,65.10
2018-07-30T19:17:27.589Z,64.50
2018-07-30T19:19:55.614Z,64.40
2018-07-30T19:22:23.632Z,63.80
2018-07-30T19:24:51.658Z,62.80
2018-07-30T19:27:19.798Z,62.30
2018-07-30T19:29:47.795Z,61.80
2018-07-30T19:32:15.835Z,61.50
2018-07-30T19:34:43.834Z,61.40
2018-07-30T19:37:11.843Z,60.80
2018-07-30T19:39:39.838Z,60.30
2018-07-30T19:42:07.874Z,59.90
2018-07-30T19:44:36.002Z,59.40
2018-07-30T19:47:03.913Z,61.20
2018-07-30T19:49:31.919Z,60.90
2018-07-30T19:52:00.039Z,60.10
2018-07-30T19:54:28.058Z,59.90
2018-07-30T19:56:56.110Z,60.20
2018-07-30T19:59:24.118Z,59.80
2018-07-30T20:01:52.277Z,59.80
2018-07-30T20:04:20.325Z,60.00
2018-07-30T20:06:48.441Z,59.80
2018-07-30T20:09:16.395Z,59.90
2018-07-30T20:11:44.782Z,60.40
2018-07-30T20:14:12.803Z,65.10
2018-07-30T20:16:40.817Z,67.00
2018-07-30T20:19:08.866Z,67.60
2018-07-30T20:21:36.938Z,68.50
2018-07-30T20:24:04.961Z,68.30
2018-07-30T20:26:32.985Z,71.10
2018-07-30T20:29:00.991Z,71.30
2018-07-30T20:31:28.998Z,71.90
2018-07-30T20:33:58.187Z,72.90
2018-07-30T20:36:26.202Z,73.00
2018-07-30T20:38:54.478Z,73.20
2018-07-30T20:41:23.208Z,73.70
2018-07-30T20:43:51.495Z,74.10
2018-07-30T20:46:19.494Z,74.40
2018-07-30T20:51:38.159Z,79.20
2018-07-30T20:54:06.187Z,77.30
2018-07-30T20:56:34.235Z,78.20
2018-07-30T20:59:02.258Z,79.40
2018-07-30T21:01:30.285Z,79.00
2018-07-30T21:03:58.297Z,78.10
2018-07-30T21:06:26.334Z,78.70
2018-07-30T21:08:54.342Z,78.10
2018-07-30T21:11:22.386Z,77.60
2018-07-30T21:13:50.397Z,78.00
2018-07-30T21:16:18.422Z,77.70
2018-07-30T21:18:46.461Z,76.70
2018-07-30T21:21:14.547Z,76.40
2018-07-30T21:23:42.542Z,76.40
2018-07-30T21:26:10.604Z,76.30
2018-07-30T21:28:38.613Z,76.00
2018-07-30T21:31:06.805Z,77.10
2018-07-30T21:33:34.836Z,76.70
2018-07-30T21:36:02.876Z,76.70
2018-07-30T21:38:30.889Z,76.50
2018-07-30T21:40:58.919Z,76.70
2018-07-30T21:43:26.938Z,77.30
2018-07-30T21:45:54.949Z,77.20
2018-07-30T21:48:22.994Z,77.60
2018-07-30T21:50:51.036Z,78.70
2018-07-30T21:53:19.072Z,78.70
2018-07-30T21:55:47.098Z,78.60
2018-07-30T21:58:15.141Z,78.70
2018-07-30T22:00:47.425Z,78.80
2018-07-30T22:03:15.450Z,79.00
2018-07-30T22:05:43.528Z,79.30
2018-07-30T22:08:11.549Z,79.50
2018-07-30T22:10:39.591Z,80.60
2018-07-30T22:13:07.623Z,81.00
2018-07-30T22:15:35.658Z,81.90
2018-07-30T22:18:03.708Z,83.00
2018-07-30T22:20:31.774Z,83.20
2018-07-30T22:22:59.814Z,83.80
2018-07-30T22:25:27.859Z,84.00
2018-07-30T22:27:55.902Z,84.40
2018-07-30T22:30:23.984Z,84.40
2018-07-30T22:32:52.025Z,84.50
2018-07-30T22:35:20.049Z,84.90
2018-07-30T22:40:15.941Z,85.60
2018-07-30T22:42:44.001Z,86.20
2018-07-30T22:45:12.047Z,87.10
2018-07-30T22:47:40.057Z,87.80
2018-07-30T22:50:08.086Z,90.00
2018-07-30T22:52:36.114Z,90.40
2018-07-30T22:55:04.201Z,90.80
2018-07-30T22:57:32.235Z,91.10
2018-07-30T23:00:00.246Z,91.50
2018-07-30T23:02:28.272Z,91.90
2018-07-30T23:04:56.274Z,92.40
2018-07-30T23:07:24.314Z,93.00
2018-07-30T23:09:52.330Z,93.10
2018-07-30T23:12:20.365Z,93.60
2018-07-30T23:14:48.392Z,94.30
2018-07-30T23:17:16.427Z,94.70
2018-07-30T23:19:44.451Z,95.20
2018-07-30T23:22:12.470Z,95.80
2018-07-30T23:24:40.498Z,96.30
2018-07-30T23:27:08.553Z,97.00
2018-07-30T23:29:36.574Z,97.80
2018-07-30T23:32:04.614Z,98.40
2018-07-30T23:34:32.679Z,98.80
2018-07-30T23:37:00.766Z,99.00
2018-07-30T23:39:28.742Z,99.40
2018-07-30T23:41:56.797Z,99.80
2018-07-30T23:44:24.817Z,99.90
2018-07-30T23:49:20.687Z,99.90
2018-07-30T23:51:48.721Z,99.90
2018-07-30T23:54:16.775Z,99.90
2018-07-30T23:56:44.818Z,99.90
2018-07-30T23:59:12.842Z,99.90
